sensor_id;sensor_type;location;lat;lon;timestamp;pressure;altitude;pressure_sealevel;temperature;humidity
61814;BME280;57055;-35.296;149.168;2023-05-25T00:01:27;95397.04;;;7.52;50.70
61814;BME280;57055;-35.296;149.168;2023-05-25T00:03:56;95385.46;;;7.29;50.74
61814;BME280;57055;-35.296;149.168;2023-05-25T00:06:26;95377.31;;;7.61;50.24
61814;BME280;57055;-35.296;149.168;2023-05-25T00:08:55;95373.36;;;7.35;50.24
61814;BME280;57055;-35.296;149.168;2023-05-25T00:11:23;95360.28;;;7.47;50.17
61814;BME280;57055;-35.296;149.168;2023-05-25T00:13:53;95357.72;;;7.54;50.25
61814;BME280;57055;-35.296;149.168;2023-05-25T00:16:22;95362.10;;;7.68;50.22
61814;BME280;57055;-35.296;149.168;2023-05-25T00:18:51;95362.59;;;7.78;49.75
61814;BME280;57055;-35.296;149.168;2023-05-25T00:21:19;95362.26;;;7.87;49.95
61814;BME280;57055;-35.296;149.168;2023-05-25T00:23:48;95370.00;;;8.01;49.60
61814;BME280;57055;-35.296;149.168;2023-05-25T00:26:17;95359.58;;;7.94;48.97
61814;BME280;57055;-35.296;149.168;2023-05-25T00:28:46;95353.40;;;8.05;49.19
61814;BME280;57055;-35.296;149.168;2023-05-25T00:31:15;95346.08;;;8.15;48.95
61814;BME280;57055;-35.296;149.168;2023-05-25T00:33:44;95338.97;;;8.28;48.58
61814;BME280;57055;-35.296;149.168;2023-05-25T00:36:13;95339.77;;;8.06;48.64
61814;BME280;57055;-35.296;149.168;2023-05-25T00:38:42;95341.06;;;8.40;48.64
61814;BME280;57055;-35.296;149.168;2023-05-25T00:41:11;95330.68;;;8.49;48.18
61814;BME280;57055;-35.296;149.168;2023-05-25T00:43:40;95326.78;;;8.45;48.14
61814;BME280;57055;-35.296;149.168;2023-05-25T00:46:10;95321.22;;;8.36;48.02
61814;BME280;57055;-35.296;149.168;2023-05-25T00:48:40;95321.27;;;8.22;47.65
61814;BME280;57055;-35.296;149.168;2023-05-25T00:51:10;95310.07;;;8.82;47.44
61814;BME280;57055;-35.296;149.168;2023-05-25T00:53:39;95301.26;;;8.58;47.36
61814;BME280;57055;-35.296;149.168;2023-05-25T00:56:14;95305.17;;;8.63;47.55
61814;BME280;57055;-35.296;149.168;2023-05-25T00:58:45;95303.29;;;8.76;47.74
61814;BME280;57055;-35.296;149.168;2023-05-25T01:01:16;95295.68;;;8.90;47.48
61814;BME280;57055;-35.296;149.168;2023-05-25T01:03:48;95288.36;;;8.96;47.54
61814;BME280;57055;-35.296;149.168;2023-05-25T01:06:21;95285.95;;;9.12;47.34
61814;BME280;57055;-35.296;149.168;2023-05-25T01:08:53;95275.95;;;8.96;46.92
61814;BME280;57055;-35.296;149.168;2023-05-25T01:11:27;95267.18;;;9.27;46.96
61814;BME280;57055;-35.296;149.168;2023-05-25T01:13:56;95248.30;;;9.10;47.04
61814;BME280;57055;-35.296;149.168;2023-05-25T01:16:26;95239.11;;;9.22;46.71
61814;BME280;57055;-35.296;149.168;2023-05-25T01:18:56;95238.14;;;9.27;46.85
61814;BME280;57055;-35.296;149.168;2023-05-25T01:21:29;95241.11;;;9.29;46.51
61814;BME280;57055;-35.296;149.168;2023-05-25T01:24:05;95222.85;;;9.49;46.49
61814;BME280;57055;-35.296;149.168;2023-05-25T01:26:41;95200.32;;;9.62;46.82
61814;BME280;57055;-35.296;149.168;2023-05-25T01:29:12;95198.39;;;9.50;46.53
61814;BME280;57055;-35.296;149.168;2023-05-25T01:31:42;95187.02;;;9.64;46.59
61814;BME280;57055;-35.296;149.168;2023-05-25T01:34:13;95178.87;;;10.02;46.12
61814;BME280;57055;-35.296;149.168;2023-05-25T01:36:43;95175.39;;;9.93;46.30
61814;BME280;57055;-35.296;149.168;2023-05-25T01:39:12;95167.81;;;9.99;46.14
61814;BME280;57055;-35.296;149.168;2023-05-25T01:41:41;95159.92;;;9.94;45.86
61814;BME280;57055;-35.296;149.168;2023-05-25T01:44:10;95154.16;;;10.14;46.07
61814;BME280;57055;-35.296;149.168;2023-05-25T01:46:39;95136.67;;;10.02;45.69
61814;BME280;57055;-35.296;149.168;2023-05-25T01:49:15;95124.72;;;10.08;45.73
61814;BME280;57055;-35.296;149.168;2023-05-25T01:51:55;95123.88;;;10.25;45.44
61814;BME280;57055;-35.296;149.168;2023-05-25T01:54:34;95118.49;;;10.31;44.99
61814;BME280;57055;-35.296;149.168;2023-05-25T01:57:07;95114.94;;;10.38;44.92
61814;BME280;57055;-35.296;149.168;2023-05-25T01:59:38;95112.24;;;10.44;44.97
61814;BME280;57055;-35.296;149.168;2023-05-25T02:02:10;95111.36;;;10.55;44.95
61814;BME280;57055;-35.296;149.168;2023-05-25T02:04:41;95103.10;;;10.63;44.89
61814;BME280;57055;-35.296;149.168;2023-05-25T02:07:10;95104.97;;;10.82;44.09
61814;BME280;57055;-35.296;149.168;2023-05-25T02:09:39;95104.52;;;10.96;43.89
61814;BME280;57055;-35.296;149.168;2023-05-25T02:12:09;95092.40;;;10.74;43.29
61814;BME280;57055;-35.296;149.168;2023-05-25T02:14:37;95074.11;;;10.79;42.89
61814;BME280;57055;-35.296;149.168;2023-05-25T02:17:06;95078.22;;;10.93;42.31
61814;BME280;57055;-35.296;149.168;2023-05-25T02:19:35;95065.74;;;11.18;42.09
61814;BME280;57055;-35.296;149.168;2023-05-25T02:22:04;95067.06;;;11.05;41.65
61814;BME280;57055;-35.296;149.168;2023-05-25T02:24:33;95065.65;;;11.16;42.08
61814;BME280;57055;-35.296;149.168;2023-05-25T02:27:02;95048.84;;;11.16;41.53
61814;BME280;57055;-35.296;149.168;2023-05-25T02:29:31;95053.20;;;11.46;42.08
61814;BME280;57055;-35.296;149.168;2023-05-25T02:31:59;95046.39;;;11.55;41.69
61814;BME280;57055;-35.296;149.168;2023-05-25T02:34:28;95027.97;;;11.30;41.37
61814;BME280;57055;-35.296;149.168;2023-05-25T02:36:57;95026.65;;;11.26;41.52
61814;BME280;57055;-35.296;149.168;2023-05-25T02:39:25;95021.63;;;11.43;41.06
61814;BME280;57055;-35.296;149.168;2023-05-25T02:41:54;95005.11;;;11.29;40.55
61814;BME280;57055;-35.296;149.168;2023-05-25T02:44:23;95007.10;;;11.79;40.70
61814;BME280;57055;-35.296;149.168;2023-05-25T02:46:51;94990.83;;;11.74;40.12
61814;BME280;57055;-35.296;149.168;2023-05-25T02:49:20;95001.29;;;12.01;40.34
61814;BME280;57055;-35.296;149.168;2023-05-25T02:51:49;95005.22;;;12.09;39.87
61814;BME280;57055;-35.296;149.168;2023-05-25T02:54:18;95005.62;;;12.05;39.55
61814;BME280;57055;-35.296;149.168;2023-05-25T02:56:46;95024.21;;;12.05;39.48
61814;BME280;57055;-35.296;149.168;2023-05-25T02:59:15;95002.19;;;11.82;39.37
61814;BME280;57055;-35.296;149.168;2023-05-25T03:01:44;95008.07;;;12.15;39.51
61814;BME280;57055;-35.296;149.168;2023-05-25T03:04:12;94997.49;;;12.22;39.23
61814;BME280;57055;-35.296;149.168;2023-05-25T03:06:41;94984.52;;;11.95;39.13
61814;BME280;57055;-35.296;149.168;2023-05-25T03:09:10;94973.79;;;12.41;39.11
61814;BME280;57055;-35.296;149.168;2023-05-25T03:11:40;94976.20;;;12.45;38.21
61814;BME280;57055;-35.296;149.168;2023-05-25T03:14:09;94979.73;;;12.47;38.11
61814;BME280;57055;-35.296;149.168;2023-05-25T03:16:38;94975.59;;;12.47;38.05
61814;BME280;57055;-35.296;149.168;2023-05-25T03:19:07;94965.18;;;12.37;37.82
61814;BME280;57055;-35.296;149.168;2023-05-25T03:21:36;94965.91;;;12.23;38.03
61814;BME280;57055;-35.296;149.168;2023-05-25T03:24:06;94962.35;;;12.53;37.46
61814;BME280;57055;-35.296;149.168;2023-05-25T03:26:35;94948.19;;;12.44;37.19
61814;BME280;57055;-35.296;149.168;2023-05-25T03:29:04;94952.10;;;12.49;37.43
61814;BME280;57055;-35.296;149.168;2023-05-25T03:31:33;94944.21;;;12.51;37.50
61814;BME280;57055;-35.296;149.168;2023-05-25T03:34:02;94947.42;;;12.56;37.54
61814;BME280;57055;-35.296;149.168;2023-05-25T03:36:31;94936.89;;;12.32;37.47
61814;BME280;57055;-35.296;149.168;2023-05-25T03:39:00;94938.03;;;12.60;37.05
61814;BME280;57055;-35.296;149.168;2023-05-25T03:41:28;94930.24;;;12.42;37.18
61814;BME280;57055;-35.296;149.168;2023-05-25T03:43:57;94923.10;;;12.53;37.12
61814;BME280;57055;-35.296;149.168;2023-05-25T03:46:26;94913.94;;;12.53;37.36
61814;BME280;57055;-35.296;149.168;2023-05-25T03:48:55;94914.03;;;12.56;37.14
61814;BME280;57055;-35.296;149.168;2023-05-25T03:51:23;94905.67;;;12.31;37.35
61814;BME280;57055;-35.296;149.168;2023-05-25T03:53:52;94895.00;;;12.42;37.76
61814;BME280;57055;-35.296;149.168;2023-05-25T03:56:21;94901.23;;;12.36;37.54
61814;BME280;57055;-35.296;149.168;2023-05-25T03:58:49;94880.09;;;12.31;37.35
61814;BME280;57055;-35.296;149.168;2023-05-25T04:01:19;94884.12;;;12.26;37.40
61814;BME280;57055;-35.296;149.168;2023-05-25T04:03:47;94886.45;;;12.26;37.75
61814;BME280;57055;-35.296;149.168;2023-05-25T04:06:16;94881.55;;;12.22;37.89
61814;BME280;57055;-35.296;149.168;2023-05-25T04:08:45;94883.84;;;12.09;37.92
61814;BME280;57055;-35.296;149.168;2023-05-25T04:11:13;94888.00;;;11.89;37.57
61814;BME280;57055;-35.296;149.168;2023-05-25T04:13:43;94883.88;;;11.75;38.18
61814;BME280;57055;-35.296;149.168;2023-05-25T04:16:12;94876.09;;;11.60;38.01
61814;BME280;57055;-35.296;149.168;2023-05-25T04:18:40;94890.45;;;11.62;38.22
61814;BME280;57055;-35.296;149.168;2023-05-25T04:21:09;94869.87;;;11.52;38.43
61814;BME280;57055;-35.296;149.168;2023-05-25T04:23:38;94864.30;;;11.38;38.86
61814;BME280;57055;-35.296;149.168;2023-05-25T04:26:06;94865.44;;;11.58;38.75
61814;BME280;57055;-35.296;149.168;2023-05-25T04:28:35;94861.76;;;11.45;39.10
61814;BME280;57055;-35.296;149.168;2023-05-25T04:31:04;94860.06;;;11.24;39.57
61814;BME280;57055;-35.296;149.168;2023-05-25T04:33:34;94874.33;;;11.46;39.54
61814;BME280;57055;-35.296;149.168;2023-05-25T04:36:03;94871.15;;;11.44;39.05
61814;BME280;57055;-35.296;149.168;2023-05-25T04:38:32;94877.36;;;11.45;39.10
61814;BME280;57055;-35.296;149.168;2023-05-25T04:41:01;94876.05;;;11.46;39.45
61814;BME280;57055;-35.296;149.168;2023-05-25T04:43:30;94863.50;;;11.45;39.51
61814;BME280;57055;-35.296;149.168;2023-05-25T04:45:59;94860.61;;;11.51;39.75
61814;BME280;57055;-35.296;149.168;2023-05-25T04:48:27;94865.68;;;11.75;39.70
61814;BME280;57055;-35.296;149.168;2023-05-25T04:50:56;94864.16;;;11.54;39.67
61814;BME280;57055;-35.296;149.168;2023-05-25T04:53:25;94866.81;;;11.53;39.74
61814;BME280;57055;-35.296;149.168;2023-05-25T04:55:53;94870.23;;;11.40;39.64
61814;BME280;57055;-35.296;149.168;2023-05-25T04:58:22;94872.74;;;11.67;39.75
61814;BME280;57055;-35.296;149.168;2023-05-25T05:00:52;94881.20;;;11.63;39.82
61814;BME280;57055;-35.296;149.168;2023-05-25T05:03:21;94881.03;;;11.33;39.88
61814;BME280;57055;-35.296;149.168;2023-05-25T05:05:50;94869.04;;;11.33;39.86
61814;BME280;57055;-35.296;149.168;2023-05-25T05:08:19;94874.59;;;11.58;39.65
61814;BME280;57055;-35.296;149.168;2023-05-25T05:10:47;94878.23;;;11.33;39.84
61814;BME280;57055;-35.296;149.168;2023-05-25T05:13:16;94875.37;;;11.38;39.36
61814;BME280;57055;-35.296;149.168;2023-05-25T05:15:45;94862.67;;;11.37;39.57
61814;BME280;57055;-35.296;149.168;2023-05-25T05:18:14;94863.51;;;11.62;39.57
61814;BME280;57055;-35.296;149.168;2023-05-25T05:20:43;94871.94;;;11.51;39.61
61814;BME280;57055;-35.296;149.168;2023-05-25T05:23:12;94864.37;;;11.53;39.66
61814;BME280;57055;-35.296;149.168;2023-05-25T05:25:41;94866.99;;;11.53;39.42
61814;BME280;57055;-35.296;149.168;2023-05-25T05:28:10;94861.00;;;11.60;39.43
61814;BME280;57055;-35.296;149.168;2023-05-25T05:30:39;94853.05;;;11.34;39.52
61814;BME280;57055;-35.296;149.168;2023-05-25T05:33:07;94869.20;;;11.34;39.47
61814;BME280;57055;-35.296;149.168;2023-05-25T05:35:36;94873.24;;;11.25;39.35
61814;BME280;57055;-35.296;149.168;2023-05-25T05:38:05;94864.01;;;11.28;39.51
61814;BME280;57055;-35.296;149.168;2023-05-25T05:40:33;94866.44;;;11.34;39.56
61814;BME280;57055;-35.296;149.168;2023-05-25T05:43:03;94877.25;;;11.34;39.78
61814;BME280;57055;-35.296;149.168;2023-05-25T05:45:32;94867.28;;;11.07;39.78
61814;BME280;57055;-35.296;149.168;2023-05-25T05:48:00;94858.17;;;11.06;39.95
61814;BME280;57055;-35.296;149.168;2023-05-25T05:50:29;94863.70;;;11.24;39.94
61814;BME280;57055;-35.296;149.168;2023-05-25T05:52:58;94860.47;;;11.16;40.30
61814;BME280;57055;-35.296;149.168;2023-05-25T05:55:27;94864.01;;;11.14;40.34
61814;BME280;57055;-35.296;149.168;2023-05-25T05:57:56;94873.33;;;11.34;40.32
61814;BME280;57055;-35.296;149.168;2023-05-25T06:00:25;94860.84;;;11.34;39.94
61814;BME280;57055;-35.296;149.168;2023-05-25T06:02:54;94853.99;;;11.02;40.12
61814;BME280;57055;-35.296;149.168;2023-05-25T06:05:23;94868.23;;;10.93;40.27
61814;BME280;57055;-35.296;149.168;2023-05-25T06:07:52;94857.32;;;11.16;40.31
61814;BME280;57055;-35.296;149.168;2023-05-25T06:10:21;94859.35;;;10.81;39.88
61814;BME280;57055;-35.296;149.168;2023-05-25T06:12:50;94859.18;;;10.77;40.12
61814;BME280;57055;-35.296;149.168;2023-05-25T06:15:19;94858.32;;;10.66;40.01
61814;BME280;57055;-35.296;149.168;2023-05-25T06:17:49;94854.80;;;10.89;40.19
61814;BME280;57055;-35.296;149.168;2023-05-25T06:20:18;94856.25;;;10.78;40.40
61814;BME280;57055;-35.296;149.168;2023-05-25T06:22:46;94858.92;;;10.78;40.36
61814;BME280;57055;-35.296;149.168;2023-05-25T06:25:15;94852.21;;;10.75;40.68
61814;BME280;57055;-35.296;149.168;2023-05-25T06:27:44;94837.19;;;10.63;40.64
61814;BME280;57055;-35.296;149.168;2023-05-25T06:30:13;94853.91;;;10.54;40.69
61814;BME280;57055;-35.296;149.168;2023-05-25T06:32:41;94858.12;;;10.52;40.54
61814;BME280;57055;-35.296;149.168;2023-05-25T06:35:10;94858.85;;;10.78;40.51
61814;BME280;57055;-35.296;149.168;2023-05-25T06:37:39;94854.54;;;10.48;40.56
61814;BME280;57055;-35.296;149.168;2023-05-25T06:40:08;94849.36;;;10.39;40.63
61814;BME280;57055;-35.296;149.168;2023-05-25T06:42:37;94853.43;;;10.27;40.95
61814;BME280;57055;-35.296;149.168;2023-05-25T06:45:07;94855.02;;;10.50;41.04
61814;BME280;57055;-35.296;149.168;2023-05-25T06:47:36;94840.54;;;10.21;41.16
61814;BME280;57055;-35.296;149.168;2023-05-25T06:50:06;94850.68;;;10.41;41.17
61814;BME280;57055;-35.296;149.168;2023-05-25T06:52:35;94849.07;;;10.11;41.36
61814;BME280;57055;-35.296;149.168;2023-05-25T06:55:05;94843.30;;;10.23;41.54
61814;BME280;57055;-35.296;149.168;2023-05-25T06:57:34;94848.72;;;9.90;42.15
61814;BME280;57055;-35.296;149.168;2023-05-25T07:00:04;94851.60;;;10.15;41.93
61814;BME280;57055;-35.296;149.168;2023-05-25T07:02:34;94852.23;;;9.88;42.12
61814;BME280;57055;-35.296;149.168;2023-05-25T07:05:03;94851.65;;;10.25;42.46
61814;BME280;57055;-35.296;149.168;2023-05-25T07:07:31;94851.81;;;10.00;42.55
61814;BME280;57055;-35.296;149.168;2023-05-25T07:10:02;94848.40;;;9.97;42.42
61814;BME280;57055;-35.296;149.168;2023-05-25T07:12:31;94854.61;;;10.19;42.81
61814;BME280;57055;-35.296;149.168;2023-05-25T07:15:00;94859.15;;;9.96;42.58
61814;BME280;57055;-35.296;149.168;2023-05-25T07:17:29;94848.48;;;10.13;42.65
61814;BME280;57055;-35.296;149.168;2023-05-25T07:19:58;94843.40;;;9.98;43.06
61814;BME280;57055;-35.296;149.168;2023-05-25T07:22:27;94852.30;;;9.63;43.13
61814;BME280;57055;-35.296;149.168;2023-05-25T07:24:56;94847.83;;;9.99;43.10
61814;BME280;57055;-35.296;149.168;2023-05-25T07:27:25;94853.00;;;9.89;43.26
61814;BME280;57055;-35.296;149.168;2023-05-25T07:29:53;94858.43;;;9.91;43.34
61814;BME280;57055;-35.296;149.168;2023-05-25T07:32:22;94854.52;;;9.91;43.25
61814;BME280;57055;-35.296;149.168;2023-05-25T07:34:51;94846.75;;;9.40;43.19
61814;BME280;57055;-35.296;149.168;2023-05-25T07:37:19;94857.24;;;9.78;43.39
61814;BME280;57055;-35.296;149.168;2023-05-25T07:39:48;94856.73;;;9.54;43.25
61814;BME280;57055;-35.296;149.168;2023-05-25T07:42:17;94859.92;;;9.73;43.45
61814;BME280;57055;-35.296;149.168;2023-05-25T07:44:47;94852.28;;;9.72;43.54
61814;BME280;57055;-35.296;149.168;2023-05-25T07:47:16;94849.05;;;9.66;43.63
61814;BME280;57055;-35.296;149.168;2023-05-25T07:49:45;94856.85;;;9.38;43.62
61814;BME280;57055;-35.296;149.168;2023-05-25T07:52:14;94847.10;;;9.62;43.77
61814;BME280;57055;-35.296;149.168;2023-05-25T07:54:43;94838.79;;;9.57;43.89
61814;BME280;57055;-35.296;149.168;2023-05-25T07:57:12;94852.60;;;9.63;43.82
61814;BME280;57055;-35.296;149.168;2023-05-25T07:59:42;94850.56;;;9.52;44.09
61814;BME280;57055;-35.296;149.168;2023-05-25T08:02:10;94844.30;;;9.66;44.15
61814;BME280;57055;-35.296;149.168;2023-05-25T08:04:39;94845.28;;;9.34;44.34
61814;BME280;57055;-35.296;149.168;2023-05-25T08:07:08;94842.31;;;9.32;44.40
61814;BME280;57055;-35.296;149.168;2023-05-25T08:09:37;94829.90;;;9.50;44.57
61814;BME280;57055;-35.296;149.168;2023-05-25T08:12:06;94815.26;;;9.55;44.37
61814;BME280;57055;-35.296;149.168;2023-05-25T08:14:34;94828.44;;;9.33;44.44
61814;BME280;57055;-35.296;149.168;2023-05-25T08:17:03;94830.74;;;9.35;44.24
61814;BME280;57055;-35.296;149.168;2023-05-25T08:19:32;94831.24;;;9.37;44.33
61814;BME280;57055;-35.296;149.168;2023-05-25T08:22:01;94831.42;;;9.38;44.29
61814;BME280;57055;-35.296;149.168;2023-05-25T08:24:30;94838.84;;;9.20;44.48
61814;BME280;57055;-35.296;149.168;2023-05-25T08:26:59;94829.66;;;9.15;44.52
61814;BME280;57055;-35.296;149.168;2023-05-25T08:29:28;94820.48;;;9.09;44.45
61814;BME280;57055;-35.296;149.168;2023-05-25T08:31:57;94801.20;;;9.06;44.34
61814;BME280;57055;-35.296;149.168;2023-05-25T08:34:26;94817.08;;;9.21;44.44
61814;BME280;57055;-35.296;149.168;2023-05-25T08:36:55;94809.45;;;9.06;44.92
61814;BME280;57055;-35.296;149.168;2023-05-25T08:39:24;94811.73;;;8.99;44.80
61814;BME280;57055;-35.296;149.168;2023-05-25T08:41:53;94817.52;;;8.73;44.90
61814;BME280;57055;-35.296;149.168;2023-05-25T08:44:22;94813.75;;;9.16;44.80
61814;BME280;57055;-35.296;149.168;2023-05-25T08:46:51;94787.30;;;8.78;44.57
61814;BME280;57055;-35.296;149.168;2023-05-25T08:49:22;94789.75;;;8.83;44.53
61814;BME280;57055;-35.296;149.168;2023-05-25T08:51:52;94795.69;;;8.94;44.71
61814;BME280;57055;-35.296;149.168;2023-05-25T08:54:27;94801.49;;;9.06;44.53
61814;BME280;57055;-35.296;149.168;2023-05-25T08:57:09;94802.53;;;8.75;44.63
61814;BME280;57055;-35.296;149.168;2023-05-25T08:59:46;94795.92;;;9.08;44.91
61814;BME280;57055;-35.296;149.168;2023-05-25T09:02:27;94791.37;;;8.86;44.95
61814;BME280;57055;-35.296;149.168;2023-05-25T09:04:59;94796.06;;;8.77;45.25
61814;BME280;57055;-35.296;149.168;2023-05-25T09:07:29;94798.44;;;8.80;45.10
61814;BME280;57055;-35.296;149.168;2023-05-25T09:09:59;94799.96;;;8.70;45.00
61814;BME280;57055;-35.296;149.168;2023-05-25T09:12:30;94800.31;;;8.84;44.80
61814;BME280;57055;-35.296;149.168;2023-05-25T09:14:59;94806.33;;;9.31;44.96
61814;BME280;57055;-35.296;149.168;2023-05-25T09:17:28;94806.97;;;9.12;44.86
61814;BME280;57055;-35.296;149.168;2023-05-25T09:19:59;94793.59;;;9.11;45.07
61814;BME280;57055;-35.296;149.168;2023-05-25T09:22:28;94792.17;;;8.85;45.19
61814;BME280;57055;-35.296;149.168;2023-05-25T09:24:57;94805.91;;;9.07;45.13
61814;BME280;57055;-35.296;149.168;2023-05-25T09:27:27;94806.76;;;8.84;45.17
61814;BME280;57055;-35.296;149.168;2023-05-25T09:29:55;94791.76;;;8.99;45.37
61814;BME280;57055;-35.296;149.168;2023-05-25T09:32:24;94793.90;;;8.79;45.29
61814;BME280;57055;-35.296;149.168;2023-05-25T09:34:53;94785.38;;;8.96;45.36
61814;BME280;57055;-35.296;149.168;2023-05-25T09:37:22;94792.56;;;8.95;45.30
61814;BME280;57055;-35.296;149.168;2023-05-25T09:39:51;94785.97;;;8.69;45.47
61814;BME280;57055;-35.296;149.168;2023-05-25T09:42:20;94782.39;;;8.94;45.33
61814;BME280;57055;-35.296;149.168;2023-05-25T09:44:50;94787.50;;;9.18;45.42
61814;BME280;57055;-35.296;149.168;2023-05-25T09:47:18;94791.82;;;8.93;45.48
61814;BME280;57055;-35.296;149.168;2023-05-25T09:49:48;94787.68;;;9.21;45.37
61814;BME280;57055;-35.296;149.168;2023-05-25T09:52:18;94789.08;;;8.77;45.31
61814;BME280;57055;-35.296;149.168;2023-05-25T09:54:47;94778.60;;;8.83;45.07
61814;BME280;57055;-35.296;149.168;2023-05-25T09:57:19;94775.87;;;9.02;44.96
61814;BME280;57055;-35.296;149.168;2023-05-25T09:59:48;94790.35;;;9.04;45.06
61814;BME280;57055;-35.296;149.168;2023-05-25T10:02:17;94779.51;;;8.93;45.16
61814;BME280;57055;-35.296;149.168;2023-05-25T10:04:46;94783.45;;;9.06;44.93
61814;BME280;57055;-35.296;149.168;2023-05-25T10:07:15;94786.17;;;8.81;45.00
61814;BME280;57055;-35.296;149.168;2023-05-25T10:09:46;94792.48;;;9.05;45.06
61814;BME280;57055;-35.296;149.168;2023-05-25T10:12:18;94782.58;;;9.08;45.05
61814;BME280;57055;-35.296;149.168;2023-05-25T10:14:50;94782.33;;;9.03;45.18
61814;BME280;57055;-35.296;149.168;2023-05-25T10:17:22;94780.88;;;8.85;45.48
61814;BME280;57055;-35.296;149.168;2023-05-25T10:19:56;94760.69;;;8.77;45.63
61814;BME280;57055;-35.296;149.168;2023-05-25T10:22:35;94781.26;;;8.82;45.63
61814;BME280;57055;-35.296;149.168;2023-05-25T10:25:12;94786.95;;;9.00;45.71
61814;BME280;57055;-35.296;149.168;2023-05-25T10:27:51;94787.59;;;8.90;45.95
61814;BME280;57055;-35.296;149.168;2023-05-25T10:30:25;94792.12;;;8.98;45.81
61814;BME280;57055;-35.296;149.168;2023-05-25T10:32:56;94792.25;;;8.75;45.92
61814;BME280;57055;-35.296;149.168;2023-05-25T10:35:27;94796.59;;;8.96;45.99
61814;BME280;57055;-35.296;149.168;2023-05-25T10:37:57;94792.91;;;8.93;46.09
61814;BME280;57055;-35.296;149.168;2023-05-25T10:40:26;94781.22;;;8.59;46.22
61814;BME280;57055;-35.296;149.168;2023-05-25T10:42:55;94779.96;;;8.61;46.25
61814;BME280;57055;-35.296;149.168;2023-05-25T10:45:25;94779.90;;;8.63;46.14
61814;BME280;57055;-35.296;149.168;2023-05-25T10:47:55;94773.38;;;8.62;46.17
61814;BME280;57055;-35.296;149.168;2023-05-25T10:50:25;94774.89;;;8.77;46.39
61814;BME280;57055;-35.296;149.168;2023-05-25T10:52:59;94782.69;;;8.73;46.32
61814;BME280;57055;-35.296;149.168;2023-05-25T10:55:29;94778.30;;;8.63;46.46
61814;BME280;57055;-35.296;149.168;2023-05-25T10:58:11;94781.51;;;8.54;46.79
61814;BME280;57055;-35.296;149.168;2023-05-25T11:00:41;94790.59;;;8.50;46.79
61814;BME280;57055;-35.296;149.168;2023-05-25T11:03:10;94796.01;;;8.36;46.58
61814;BME280;57055;-35.296;149.168;2023-05-25T11:05:40;94784.22;;;8.63;46.33
61814;BME280;57055;-35.296;149.168;2023-05-25T11:08:09;94772.96;;;8.71;46.22
61814;BME280;57055;-35.296;149.168;2023-05-25T11:10:54;94768.93;;;8.50;46.18
61814;BME280;57055;-35.296;149.168;2023-05-25T11:13:35;94747.26;;;8.81;45.91
61814;BME280;57055;-35.296;149.168;2023-05-25T11:16:22;94748.86;;;8.59;45.70
61814;BME280;57055;-35.296;149.168;2023-05-25T11:18:56;94743.91;;;8.85;45.71
61814;BME280;57055;-35.296;149.168;2023-05-25T11:22:13;94753.09;;;8.57;45.71
61814;BME280;57055;-35.296;149.168;2023-05-25T11:24:43;94752.34;;;8.73;45.89
61814;BME280;57055;-35.296;149.168;2023-05-25T11:27:13;94763.54;;;8.61;46.17
61814;BME280;57055;-35.296;149.168;2023-05-25T11:29:43;94771.16;;;8.64;46.03
61814;BME280;57055;-35.296;149.168;2023-05-25T11:32:14;94769.15;;;8.55;45.64
61814;BME280;57055;-35.296;149.168;2023-05-25T11:34:43;94770.91;;;8.78;45.57
61814;BME280;57055;-35.296;149.168;2023-05-25T11:37:14;94761.07;;;8.56;45.59
61814;BME280;57055;-35.296;149.168;2023-05-25T11:39:47;94763.30;;;8.61;45.45
61814;BME280;57055;-35.296;149.168;2023-05-25T11:42:18;94765.08;;;8.71;45.31
61814;BME280;57055;-35.296;149.168;2023-05-25T11:44:48;94765.49;;;8.73;45.25
61814;BME280;57055;-35.296;149.168;2023-05-25T11:47:20;94756.19;;;8.72;45.46
61814;BME280;57055;-35.296;149.168;2023-05-25T11:49:49;94742.68;;;8.95;45.31
61814;BME280;57055;-35.296;149.168;2023-05-25T11:52:20;94740.69;;;8.98;45.39
61814;BME280;57055;-35.296;149.168;2023-05-25T11:54:49;94736.59;;;8.98;45.45
61814;BME280;57055;-35.296;149.168;2023-05-25T11:57:20;94732.85;;;9.02;45.10
61814;BME280;57055;-35.296;149.168;2023-05-25T11:59:51;94729.80;;;9.04;45.28
61814;BME280;57055;-35.296;149.168;2023-05-25T12:02:21;94723.53;;;9.04;45.08
61814;BME280;57055;-35.296;149.168;2023-05-25T12:04:53;94723.53;;;8.85;44.77
61814;BME280;57055;-35.296;149.168;2023-05-25T12:07:24;94721.35;;;8.88;44.82
61814;BME280;57055;-35.296;149.168;2023-05-25T12:10:03;94721.05;;;9.08;44.90
61814;BME280;57055;-35.296;149.168;2023-05-25T12:12:39;94726.93;;;9.13;44.73
61814;BME280;57055;-35.296;149.168;2023-05-25T12:15:10;94726.15;;;8.94;44.41
61814;BME280;57055;-35.296;149.168;2023-05-25T12:17:42;94719.49;;;8.98;44.50
61814;BME280;57055;-35.296;149.168;2023-05-25T12:20:12;94715.75;;;8.92;44.47
61814;BME280;57055;-35.296;149.168;2023-05-25T12:22:42;94692.35;;;8.90;44.67
61814;BME280;57055;-35.296;149.168;2023-05-25T12:25:12;94697.79;;;9.05;44.65
61814;BME280;57055;-35.296;149.168;2023-05-25T12:27:41;94692.72;;;9.02;44.70
61814;BME280;57055;-35.296;149.168;2023-05-25T12:30:11;94701.28;;;8.83;44.76
61814;BME280;57055;-35.296;149.168;2023-05-25T12:33:00;94693.30;;;9.13;44.30
61814;BME280;57055;-35.296;149.168;2023-05-25T12:35:31;94691.12;;;8.89;44.17
61814;BME280;57055;-35.296;149.168;2023-05-25T12:38:12;94683.00;;;9.16;44.02
61814;BME280;57055;-35.296;149.168;2023-05-25T12:40:41;94681.64;;;9.20;44.06
61814;BME280;57055;-35.296;149.168;2023-05-25T12:43:11;94678.88;;;9.03;44.00
61814;BME280;57055;-35.296;149.168;2023-05-25T12:45:40;94675.06;;;8.79;43.75
61814;BME280;57055;-35.296;149.168;2023-05-25T12:48:10;94679.78;;;8.82;43.68
61814;BME280;57055;-35.296;149.168;2023-05-25T12:50:55;94671.58;;;9.07;43.39